createdAt,value
2018-12-23T00:32:47.711Z,22.2
2018-12-23T00:33:53.894Z,22.2
2018-12-23T00:34:57.901Z,22.2
2018-12-23T00:36:16.077Z,22.3
2018-12-23T00:37:10.593Z,22.3
2018-12-23T00:37:48.425Z,22.3
2018-12-23T05:02:05.123Z,22.3
2018-12-23T05:02:54.415Z,22.3
2018-12-23T05:03:50.430Z,22.3
2018-12-23T05:04:35.620Z,22.3
2018-12-23T05:05:25.086Z,22.3
2018-12-23T05:06:18.147Z,22.2
2018-12-23T05:07:05.196Z,22.2
2018-12-23T05:07:55.035Z,22.2
2018-12-23T05:08:45.039Z,22.2
2018-12-23T05:09:35.804Z,22.3
2018-12-23T05:10:25.940Z,22.2
2018-12-23T05:11:15.449Z,22.2
2018-12-23T05:12:05.573Z,22.2
2018-12-23T05:12:55.034Z,22.2
2018-12-23T05:13:45.110Z,22.3
2018-12-23T05:14:35.681Z,22.3
2018-12-23T05:15:24.728Z,22.3
2018-12-23T05:16:15.582Z,22.3
2018-12-23T05:17:05.604Z,22.3
2018-12-23T05:17:56.718Z,22.3
2018-12-23T05:18:46.421Z,22.3
2018-12-23T05:19:35.861Z,22.3
2018-12-23T05:20:25.798Z,22.3
2018-12-23T05:21:15.597Z,22.3
2018-12-23T05:22:06.801Z,22.4
2018-12-23T05:22:57.059Z,22.4
2018-12-23T05:23:46.334Z,22.4
2018-12-23T05:24:35.368Z,22.4
2018-12-23T05:25:25.288Z,22.4
2018-12-23T05:26:16.529Z,22.4
2018-12-23T05:27:06.507Z,22.4
2018-12-23T05:27:56.025Z,22.4
2018-12-23T05:28:46.945Z,22.4
2018-12-23T05:29:36.733Z,22.4
2018-12-23T05:30:26.480Z,22.4
2018-12-23T05:31:16.262Z,22.3
2018-12-23T05:32:06.905Z,22.1
2018-12-23T05:32:57.795Z,21.9
2018-12-23T05:33:47.263Z,21.8
2018-12-23T05:34:36.517Z,21.7
2018-12-23T05:35:26.554Z,21.6
2018-12-23T05:36:16.871Z,21.4
2018-12-23T05:37:07.222Z,21.4
2018-12-23T05:37:57.506Z,21.4
2018-12-23T05:38:46.759Z,21.4
2018-12-23T05:39:37.399Z,21.3
2018-12-23T05:40:27.519Z,21.4
2018-12-23T05:41:18.059Z,21.4
2018-12-23T05:42:07.607Z,21.4
2018-12-23T05:42:58.757Z,21.4
2018-12-23T05:43:47.505Z,21.4
2018-12-23T05:44:37.790Z,21.4
2018-12-23T05:45:28.110Z,21.4
2018-12-23T05:46:17.972Z,21.4
2018-12-23T05:47:08.139Z,21.4
2018-12-23T05:47:58.464Z,21.4
2018-12-23T05:48:48.353Z,21.4
2018-12-23T05:49:37.601Z,21.5
2018-12-23T05:50:28.120Z,21.5
2018-12-23T05:51:18.169Z,21.5
2018-12-23T05:52:08.286Z,21.5
2018-12-23T05:52:58.261Z,21.6
2018-12-23T05:53:48.343Z,21.6
2018-12-23T05:54:38.733Z,21.6
2018-12-23T05:55:28.759Z,21.6
2018-12-23T05:56:18.221Z,21.6
2018-12-23T05:57:08.818Z,21.6
2018-12-23T05:57:59.218Z,21.5
2018-12-23T05:58:49.003Z,21.5
2018-12-23T05:59:38.758Z,21.4
2018-12-23T06:00:28.265Z,21.4
2018-12-23T06:01:19.136Z,21.4
2018-12-23T06:02:08.681Z,21.4
2018-12-23T06:02:59.745Z,21.4
2018-12-23T06:03:49.365Z,21.4
2018-12-23T06:04:38.585Z,21.4
2018-12-23T06:05:29.450Z,21.3
2018-12-23T06:06:18.355Z,21.3
2018-12-23T06:07:09.535Z,21.3
2018-12-23T06:07:59.313Z,21.3
2018-12-23T06:08:49.615Z,21.3
2018-12-23T06:09:39.708Z,21.3
2018-12-23T06:10:29.020Z,21.3
2018-12-23T06:11:20.087Z,21.3
2018-12-23T06:12:09.586Z,21.3
2018-12-23T06:12:59.148Z,21.3
2018-12-23T06:13:49.965Z,21.3
2018-12-23T06:14:39.760Z,21.3
2018-12-23T06:15:29.530Z,21.4
2018-12-23T06:16:19.962Z,21.4
2018-12-23T06:17:10.464Z,21.4
2018-12-23T06:17:59.792Z,21.4
2018-12-23T06:18:50.464Z,21.5
2018-12-23T06:19:40.384Z,21.5
2018-12-23T06:20:30.435Z,21.5
2018-12-23T06:21:19.710Z,21.6
2018-12-23T06:22:09.716Z,21.6
2018-12-23T06:22:59.444Z,21.6
2018-12-23T06:23:50.379Z,21.6
2018-12-23T06:24:40.452Z,21.6
2018-12-23T06:25:31.217Z,21.6
2018-12-23T06:26:20.666Z,21.6
2018-12-23T06:27:10.588Z,21.6
2018-12-23T06:28:00.929Z,21.5
2018-12-23T06:28:53.319Z,21.5
2018-12-23T06:29:40.774Z,21.5
2018-12-23T06:30:30.556Z,21.5
2018-12-23T06:31:21.165Z,21.5
2018-12-23T06:32:11.214Z,21.4
2018-12-23T06:33:00.570Z,21.4
2018-12-23T06:33:51.576Z,21.4
2018-12-23T06:34:41.148Z,21.4
2018-12-23T06:35:31.478Z,21.4
2018-12-23T06:36:20.959Z,21.4
2018-12-23T06:37:17.321Z,21.3
2018-12-23T06:38:01.621Z,21.3
2018-12-23T06:38:52.187Z,21.2
2018-12-23T06:39:41.750Z,21.3
2018-12-23T06:40:31.918Z,21.3
2018-12-23T06:41:21.564Z,21.2
2018-12-23T06:42:11.642Z,21.2
2018-12-23T06:43:01.700Z,21.2
2018-12-23T06:43:51.867Z,21.2
2018-12-23T06:44:41.842Z,21.2
2018-12-23T06:45:32.141Z,21.2
2018-12-23T06:46:22.280Z,21.3
2018-12-23T06:47:12.078Z,21.3
2018-12-23T06:48:02.104Z,21.3
2018-12-23T06:48:52.637Z,21.4
2018-12-23T06:49:42.247Z,21.4
2018-12-23T06:50:32.725Z,21.4
2018-12-23T06:51:21.987Z,21.4
2018-12-23T06:52:12.574Z,21.4
2018-12-23T06:53:02.349Z,21.4
2018-12-23T06:53:52.692Z,21.3
2018-12-23T06:54:43.107Z,21.3
2018-12-23T06:55:32.076Z,21.3
2018-12-23T06:56:22.877Z,21.2
2018-12-23T06:58:02.722Z,21.1
2018-12-23T06:58:51.896Z,21
2018-12-23T06:59:42.529Z,20.9
2018-12-23T07:00:32.311Z,20.9
2018-12-23T07:01:22.932Z,20.8
2018-12-23T07:02:12.841Z,20.8
2018-12-23T07:03:03.389Z,20.7
2018-12-23T07:03:53.372Z,20.7
2018-12-23T07:04:42.896Z,20.6
2018-12-23T07:05:33.598Z,20.6
2018-12-23T07:06:23.836Z,20.6
2018-12-23T07:07:22.211Z,20.6
2018-12-23T07:08:03.656Z,20.6
2018-12-23T07:08:53.756Z,20.5
2018-12-23T07:09:43.808Z,20.4
2018-12-23T07:10:34.038Z,20.4
2018-12-23T07:11:24.001Z,20.4
2018-12-23T07:12:14.306Z,20.4
2018-12-23T07:13:03.759Z,20.5
2018-12-23T07:13:53.778Z,20.4
2018-12-23T07:14:44.103Z,20.5
2018-12-23T07:15:34.539Z,20.4
2018-12-23T07:16:23.950Z,20.4
2018-12-23T07:17:14.005Z,20.4
2018-12-23T07:18:04.153Z,20.4
2018-12-23T07:18:54.138Z,20.4
2018-12-23T07:19:44.975Z,20.5
2018-12-23T07:20:34.301Z,20.5
2018-12-23T07:21:24.288Z,20.5
2018-12-23T07:22:14.371Z,20.6
2018-12-23T07:23:04.405Z,20.6
2018-12-23T07:23:54.735Z,20.6
2018-12-23T07:24:44.740Z,20.6
2018-12-23T07:25:35.148Z,20.6
2018-12-23T07:26:24.965Z,20.6
2018-12-23T07:27:14.498Z,20.6
2018-12-23T07:28:04.555Z,20.6
2018-12-23T07:28:55.081Z,20.6
2018-12-23T07:29:44.573Z,20.6
2018-12-23T07:30:35.807Z,20.6
2018-12-23T07:31:25.232Z,20.6
2018-12-23T07:32:14.835Z,20.5
2018-12-23T07:33:04.794Z,20.5
2018-12-23T07:33:54.657Z,20.4
2018-12-23T07:34:44.926Z,20.4
2018-12-23T07:35:35.462Z,20.4
2018-12-23T07:36:25.041Z,20.4
2018-12-23T07:37:15.354Z,20.4
2018-12-23T07:38:07.784Z,20.5
2018-12-23T07:38:55.757Z,20.4
2018-12-23T07:39:45.524Z,20.4
2018-12-23T07:40:35.334Z,20.4
2018-12-23T07:41:25.892Z,20.5
2018-12-23T07:42:15.689Z,20.6
2018-12-23T07:43:05.769Z,20.7
2018-12-23T07:43:56.098Z,20.8
2018-12-23T07:44:46.174Z,20.8
2018-12-23T07:45:35.932Z,20.9
2018-12-23T07:46:26.484Z,20.9
2018-12-23T07:47:16.316Z,20.9
2018-12-23T07:48:06.112Z,21
2018-12-23T07:48:56.275Z,21
2018-12-23T07:49:46.746Z,21.1
2018-12-23T07:50:36.648Z,21.1
2018-12-23T07:53:06.278Z,21.2
2018-12-23T07:53:56.499Z,21.2
2018-12-23T07:54:45.777Z,21.3
2018-12-23T07:55:35.788Z,21.3
2018-12-23T07:56:25.703Z,21.3
2018-12-23T07:57:16.423Z,21.3
2018-12-23T07:58:07.048Z,21.3
2018-12-23T07:58:56.543Z,21.4
2018-12-23T07:59:46.607Z,21.4
2018-12-23T08:00:36.947Z,21.4
2018-12-23T08:01:27.103Z,21.4
2018-12-23T08:02:17.367Z,21.4
2018-12-23T08:03:07.707Z,21.3
2018-12-23T08:03:56.893Z,21.4
2018-12-23T08:04:47.495Z,21.3
2018-12-23T08:05:37.015Z,21.3
2018-12-23T08:06:27.882Z,21.3
2018-12-23T08:07:17.187Z,21.3
2018-12-23T08:08:07.194Z,21.3
2018-12-23T08:08:57.793Z,21.3
2018-12-23T08:09:46.844Z,21.3
2018-12-23T08:10:37.424Z,21.3
2018-12-23T08:11:27.439Z,21.2
2018-12-23T08:12:17.251Z,21.2
2018-12-23T08:13:07.694Z,21.2
2018-12-23T08:13:57.874Z,21.2
2018-12-23T08:18:09.224Z,21.2
2018-12-23T08:18:58.104Z,21.2
2018-12-23T08:19:48.043Z,21.2
2018-12-23T08:20:37.341Z,21.2
2018-12-23T08:21:28.126Z,21.2
2018-12-23T08:22:18.228Z,21.3
2018-12-23T08:23:07.826Z,21.3
2018-12-23T08:23:58.818Z,21.3
2018-12-23T08:24:48.232Z,21.3
2018-12-23T08:25:41.989Z,21.3
2018-12-23T08:26:28.768Z,21.3
2018-12-23T08:27:17.460Z,21.3
2018-12-23T08:28:07.788Z,21.3
2018-12-23T08:28:58.483Z,21.3
2018-12-23T08:29:47.628Z,21.3
2018-12-23T08:30:39.054Z,21.2
2018-12-23T08:31:28.283Z,21.2
2018-12-23T08:35:39.148Z,21.1
2018-12-23T08:36:29.442Z,21.1
2018-12-23T08:37:18.707Z,21.1
2018-12-23T08:38:09.027Z,21.1
2018-12-23T08:38:59.357Z,21.1
2018-12-23T08:39:48.945Z,21.1
2018-12-23T08:41:30.280Z,21.1
2018-12-23T08:44:49.804Z,21.2
2018-12-23T08:45:39.732Z,21.3
2018-12-23T08:46:38.902Z,21.3
2018-12-23T08:47:19.874Z,21.3
2018-12-23T08:48:10.572Z,21.3
2018-12-23T08:49:00.534Z,21.3
2018-12-23T08:49:50.015Z,21.4
2018-12-23T08:50:40.327Z,21.4
2018-12-23T08:51:30.949Z,21.4
2018-12-23T08:52:20.492Z,21.4
2018-12-23T08:53:11.094Z,21.4
2018-12-23T08:54:00.307Z,21.4
2018-12-23T08:54:50.624Z,21.4
2018-12-23T08:55:40.394Z,21.4
2018-12-23T08:56:30.186Z,21.4
2018-12-23T08:57:20.599Z,21.4
2018-12-23T08:58:11.010Z,21.4
2018-12-23T08:59:00.922Z,21.3
2018-12-23T08:59:51.035Z,21.3
2018-12-23T09:00:41.140Z,21.3
2018-12-23T09:16:30.155Z,21.1
2018-12-23T09:19:00.375Z,21.2
2018-12-23T09:19:50.722Z,21.2
2018-12-23T09:20:40.770Z,21.2
2018-12-23T09:21:30.617Z,21.3
2018-12-23T09:22:21.921Z,21.3
2018-12-23T09:23:10.398Z,21.3
2018-12-23T09:24:01.190Z,21.3
2018-12-23T09:24:50.463Z,21.3
2018-12-23T09:25:40.002Z,21.4
2018-12-23T09:26:31.420Z,21.4
2018-12-23T09:27:20.654Z,21.4
2018-12-23T09:28:13.312Z,21.4
2018-12-23T09:29:01.154Z,21.4
2018-12-23T09:29:51.494Z,21.4
2018-12-23T09:30:40.072Z,21.4
2018-12-23T09:31:31.434Z,21.4
2018-12-23T09:32:21.291Z,21.4
2018-12-23T09:33:11.622Z,21.3
2018-12-23T09:34:01.809Z,21.3
2018-12-23T09:34:51.459Z,21.3
2018-12-23T09:35:41.512Z,21.3
2018-12-23T09:36:31.550Z,21.3
2018-12-23T09:37:20.819Z,21.3
2018-12-23T09:38:11.221Z,21.3
2018-12-23T09:39:01.474Z,21.3
2018-12-23T09:39:51.899Z,21.3
2018-12-23T09:40:41.391Z,21.2
2018-12-23T09:41:32.216Z,21.2
2018-12-23T09:42:22.236Z,21.2
2018-12-23T09:43:11.506Z,21.2
2018-12-23T09:44:02.405Z,21.2
2018-12-23T09:44:52.921Z,21.2
2018-12-23T09:45:42.028Z,21.2
2018-12-23T09:46:33.095Z,21.2
2018-12-23T09:51:32.423Z,21.2
2018-12-23T09:52:22.678Z,21.2
2018-12-23T09:53:13.343Z,21.2
2018-12-23T09:54:02.805Z,21.2
2018-12-23T09:54:53.648Z,21.2
2018-12-23T09:55:43.198Z,21.2
2018-12-23T09:56:33.385Z,21.3
2018-12-23T09:57:23.308Z,21.3
2018-12-23T09:58:13.603Z,21.3
2018-12-23T09:59:03.595Z,21.4
2018-12-23T09:59:52.672Z,21.4
2018-12-23T10:00:42.653Z,21.4
2018-12-23T10:01:34.425Z,21.4
2018-12-23T10:02:23.902Z,21.4
2018-12-23T10:03:13.974Z,21.4
2018-12-23T10:04:02.720Z,21.4
2018-12-23T10:04:53.637Z,21.4
2018-12-23T10:05:43.152Z,21.4
2018-12-23T10:06:34.202Z,21.4
2018-12-23T10:07:24.189Z,21.4
2018-12-23T10:08:17.337Z,21.4
2018-12-23T10:09:04.105Z,21.4
2018-12-23T10:09:53.535Z,21.3
2018-12-23T10:10:44.152Z,21.3
2018-12-23T10:11:34.317Z,21.3
2018-12-23T10:12:23.799Z,21.3
2018-12-23T10:13:13.659Z,21.3
2018-12-23T10:14:04.387Z,21.3
2018-12-23T10:14:54.180Z,21.3
2018-12-23T10:15:44.530Z,21.2
2018-12-23T10:16:35.105Z,21.2
2018-12-23T10:17:24.400Z,21.2
2018-12-23T10:18:14.946Z,21.2
2018-12-23T10:19:03.772Z,21.2
2018-12-23T10:24:05.374Z,21.2
2018-12-23T10:24:55.159Z,21.2
2018-12-23T10:25:45.009Z,21.2
2018-12-23T10:26:35.273Z,21.3
2018-12-23T10:27:24.852Z,21.2
2018-12-23T10:28:15.431Z,21.2
2018-12-23T10:29:05.338Z,21.3
2018-12-23T10:29:54.456Z,21.2
2018-12-23T10:30:44.816Z,21.3
2018-12-23T10:31:34.857Z,21.3
2018-12-23T10:32:24.648Z,21.3
2018-12-23T10:33:15.243Z,21.4
2018-12-23T10:34:04.482Z,21.3
2018-12-23T10:34:55.377Z,21.4
2018-12-23T10:35:45.451Z,21.4
2018-12-23T10:36:35.196Z,21.4
2018-12-23T10:37:25.641Z,21.4
2018-12-23T10:38:24.765Z,21.4
2018-12-23T10:39:05.741Z,21.4
2018-12-23T10:39:55.445Z,21.4
2018-12-23T10:40:45.840Z,21.4
2018-12-23T10:41:35.822Z,21.4
2018-12-23T10:42:26.838Z,21.3
2018-12-23T10:43:16.357Z,21.3
2018-12-23T10:44:05.776Z,21.3
2018-12-23T10:44:56.078Z,21.3
2018-12-23T10:45:45.853Z,21.3
2018-12-23T10:46:36.465Z,21.3
2018-12-23T10:47:26.228Z,21.3
2018-12-23T10:48:16.477Z,21.3
2018-12-23T10:49:06.793Z,21.3
2018-12-23T10:49:57.502Z,21.2
2018-12-23T10:50:47.062Z,21.2
2018-12-23T10:51:36.735Z,21.2
2018-12-23T10:52:26.855Z,21.2
2018-12-23T10:53:17.767Z,21.2
2018-12-23T10:54:06.757Z,21.2
2018-12-23T10:54:56.979Z,21.2
2018-12-23T11:01:38.106Z,21.2
2018-12-23T11:02:28.021Z,21.2
2018-12-23T11:03:18.208Z,21.3
2018-12-23T11:04:07.774Z,21.2
2018-12-23T11:04:58.247Z,21.3
2018-12-23T11:05:47.977Z,21.3
2018-12-23T11:06:38.054Z,21.3
2018-12-23T11:07:28.354Z,21.3
2018-12-23T11:08:17.901Z,21.3
2018-12-23T11:09:08.600Z,21.4
2018-12-23T11:10:07.509Z,21.4
2018-12-23T11:10:48.678Z,21.3
2018-12-23T11:11:38.679Z,21.3
2018-12-23T11:12:29.057Z,21.3
2018-12-23T11:13:18.524Z,21.3
2018-12-23T11:14:08.348Z,21.3
2018-12-23T11:14:58.103Z,21.2
2018-12-23T11:15:49.581Z,21.2
2018-12-23T11:16:38.841Z,21.3
2018-12-23T11:17:28.646Z,21.2
2018-12-23T11:18:18.391Z,21.2
2018-12-23T11:19:08.641Z,21.2
2018-12-23T11:19:59.008Z,21.2
2018-12-23T11:20:49.314Z,21.2
2018-12-23T11:21:41.371Z,21.3
2018-12-23T11:22:28.170Z,21.3
2018-12-23T11:23:19.206Z,21.3
2018-12-23T11:24:09.808Z,21.3
2018-12-23T11:24:59.345Z,21.3
2018-12-23T11:25:50.272Z,21.3
2018-12-23T11:26:39.755Z,21.3
2018-12-23T11:27:29.292Z,21.3
2018-12-23T11:28:20.120Z,21.3
2018-12-23T11:29:09.352Z,21.2
2018-12-23T11:29:59.720Z,21.2
2018-12-23T11:30:49.261Z,21.2
2018-12-23T11:37:30.214Z,21.2
2018-12-23T11:38:21.959Z,21.3
2018-12-23T11:39:10.397Z,21.3
2018-12-23T11:40:00.384Z,21.4
2018-12-23T11:40:50.501Z,21.4
2018-12-23T11:41:40.981Z,21.4
2018-12-23T11:42:30.410Z,21.4
2018-12-23T11:43:20.034Z,21.4
2018-12-23T11:44:10.217Z,21.4
2018-12-23T11:45:00.963Z,21.4
2018-12-23T11:45:49.696Z,21.4
2018-12-23T11:46:40.916Z,21.4
2018-12-23T11:47:30.978Z,21.4
2018-12-23T11:48:21.534Z,21.4
2018-12-23T11:49:11.089Z,21.4
2018-12-23T11:50:01.614Z,21.4
2018-12-23T11:50:51.146Z,21.4
2018-12-23T11:51:41.660Z,21.4
2018-12-23T11:52:30.810Z,21.4
2018-12-23T11:53:21.583Z,21.4
2018-12-23T11:54:10.871Z,21.5
2018-12-23T11:55:01.268Z,21.4
2018-12-23T11:55:51.586Z,21.4
2018-12-23T11:56:41.573Z,21.4
2018-12-23T11:57:31.342Z,21.4
2018-12-23T11:58:22.255Z,21.3
2018-12-23T11:59:12.063Z,21.3
2018-12-23T12:00:01.651Z,21.3
2018-12-23T12:00:52.483Z,21.3
2018-12-23T12:01:42.740Z,21.3
2018-12-23T12:02:31.954Z,21.3
2018-12-23T12:03:22.300Z,21.2
2018-12-23T12:04:11.650Z,21.3
2018-12-23T12:05:01.600Z,21.2
2018-12-23T12:05:52.037Z,21.2
2018-12-23T12:06:42.362Z,21.2
2018-12-23T12:07:31.553Z,21.2
2018-12-23T12:08:22.459Z,21.2
2018-12-23T12:09:13.193Z,21.2
2018-12-23T12:10:02.132Z,21.2
2018-12-23T12:10:52.302Z,21.2
2018-12-23T12:11:42.648Z,21.2
2018-12-23T12:12:33.209Z,21.2
2018-12-23T12:13:23.104Z,21.3
2018-12-23T12:14:12.612Z,21.3
2018-12-23T12:15:02.700Z,21.3
2018-12-23T12:15:53.417Z,21.3
2018-12-23T12:16:43.224Z,21.3
2018-12-23T12:17:33.069Z,21.3
2018-12-23T12:18:22.905Z,21.3
2018-12-23T12:19:13.174Z,21.4
2018-12-23T12:20:03.389Z,21.4
2018-12-23T12:20:53.349Z,21.4
2018-12-23T12:21:43.874Z,21.4
2018-12-23T12:22:33.474Z,21.4
2018-12-23T12:23:23.711Z,21.4
2018-12-23T12:24:13.484Z,21.4
2018-12-23T12:25:03.295Z,21.4
2018-12-23T12:25:53.038Z,21.4
2018-12-23T12:26:43.101Z,21.3
2018-12-23T12:27:33.461Z,21.3
2018-12-23T12:28:23.746Z,21.3
2018-12-23T12:29:15.791Z,21.3
2018-12-23T12:30:04.156Z,21.3
2018-12-23T12:30:53.933Z,21.3
2018-12-23T12:31:43.738Z,21.3
2018-12-23T12:32:34.058Z,21.3
2018-12-23T12:33:24.239Z,21.3
2018-12-23T12:34:14.222Z,21.3
2018-12-23T12:35:05.669Z,21.3
2018-12-23T12:35:54.558Z,21.3
2018-12-23T12:36:43.886Z,21.2
2018-12-23T12:37:33.931Z,21.2
2018-12-23T12:38:24.193Z,21.2
2018-12-23T12:39:14.538Z,21.2
2018-12-23T12:40:04.653Z,21.2
2018-12-23T12:40:56.922Z,21.2
2018-12-23T12:41:44.726Z,21.2
2018-12-23T12:42:34.814Z,21.2
2018-12-23T12:43:24.248Z,21.2
2018-12-23T12:44:14.610Z,21.2
2018-12-23T12:46:45.061Z,21.2
2018-12-23T12:47:35.476Z,21.2
2018-12-23T12:48:25.272Z,21.2
2018-12-23T12:49:15.591Z,21.2
2018-12-23T12:50:05.120Z,21.3
2018-12-23T12:50:55.344Z,21.3
2018-12-23T12:51:45.415Z,21.4
2018-12-23T12:52:35.297Z,21.3
2018-12-23T12:53:25.526Z,21.3
2018-12-23T12:54:15.578Z,21.4
2018-12-23T12:55:06.290Z,21.4
2018-12-23T12:55:55.998Z,21.4
2018-12-23T12:56:46.065Z,21.4
2018-12-23T12:57:35.253Z,21.4
2018-12-23T12:58:26.295Z,21.4
2018-12-23T12:59:16.192Z,21.3
2018-12-23T13:00:05.988Z,21.4
2018-12-23T13:00:55.542Z,21.3
2018-12-23T13:01:46.212Z,21.3
2018-12-23T13:02:36.010Z,21.3
2018-12-23T13:03:25.692Z,21.3
2018-12-23T13:04:16.004Z,21.3
2018-12-23T13:05:06.900Z,21.3
2018-12-23T13:05:56.671Z,21.3
2018-12-23T13:06:47.077Z,21.3
2018-12-23T13:07:36.575Z,21.4
2018-12-23T13:08:26.009Z,21.3
2018-12-23T13:09:16.422Z,21.3
2018-12-23T13:10:07.200Z,21.3
2018-12-23T13:10:56.307Z,21.3
2018-12-23T13:11:45.764Z,21.2
2018-12-23T13:12:37.219Z,21.2
2018-12-23T13:13:26.267Z,21.2
2018-12-23T13:14:16.212Z,21.2
2018-12-23T13:15:09.137Z,21.2
2018-12-23T13:15:57.199Z,21.2
2018-12-23T13:16:46.909Z,21.2
2018-12-23T13:17:36.181Z,21.2
2018-12-23T13:19:16.925Z,21.2
2018-12-23T13:20:57.566Z,21.2
2018-12-23T13:21:47.011Z,21.2
2018-12-23T13:22:37.674Z,21.2
2018-12-23T13:23:28.005Z,21.2
2018-12-23T13:24:16.626Z,21.2
2018-12-23T13:25:07.548Z,21.2
2018-12-23T13:25:57.508Z,21.2
2018-12-23T13:26:46.993Z,21.3
2018-12-23T13:27:38.128Z,21.3
2018-12-23T13:28:27.601Z,21.3
2018-12-23T13:29:16.976Z,21.3
2018-12-23T13:30:09.831Z,21.3
2018-12-23T13:30:57.586Z,21.3
2018-12-23T13:31:49.046Z,21.3
2018-12-23T13:32:37.758Z,21.3
2018-12-23T13:33:27.990Z,21.3
2018-12-23T13:34:18.444Z,21.3
2018-12-23T13:35:07.775Z,21.3
2018-12-23T13:35:57.998Z,21.3
2018-12-23T13:36:48.673Z,21.3
2018-12-23T13:37:38.398Z,21.3
2018-12-23T13:38:28.680Z,21.3
2018-12-23T13:39:17.960Z,21.3
2018-12-23T13:40:08.402Z,21.3
2018-12-23T13:40:57.800Z,21.3
2018-12-23T13:41:51.050Z,21.3
2018-12-23T13:42:38.253Z,21.3
2018-12-23T13:43:27.784Z,21.3
2018-12-23T13:44:19.140Z,21.3
2018-12-23T13:45:08.634Z,21.3
2018-12-23T13:45:58.123Z,21.2
2018-12-23T13:46:48.796Z,21.2
2018-12-23T13:47:38.517Z,21.2
2018-12-23T13:49:18.197Z,21.1
2018-12-23T13:50:08.444Z,21.1
2018-12-23T13:50:59.302Z,21.1
2018-12-23T13:51:49.474Z,21.1
2018-12-23T13:52:38.981Z,21.1
2018-12-23T13:53:29.599Z,21.1
2018-12-23T13:54:21.071Z,21.1
2018-12-23T13:55:09.389Z,21.1
2018-12-23T13:55:59.392Z,21.1
2018-12-23T14:15:25.142Z,21.3
2018-12-23T14:16:15.077Z,21.3
2018-12-23T14:17:05.305Z,21.3
2018-12-23T14:17:54.496Z,21.3
2018-12-23T14:18:59.694Z,21.3
2018-12-23T14:19:34.545Z,21.2
2018-12-23T14:20:25.875Z,21.2
2018-12-23T14:21:15.609Z,21.2
2018-12-23T14:22:04.634Z,21.2
2018-12-23T14:22:55.787Z,21.2
2018-12-23T14:23:45.936Z,21.2
2018-12-23T14:24:49.724Z,21.2
2018-12-23T14:30:26.059Z,21.2
2018-12-23T14:31:16.621Z,21.2
2018-12-23T14:32:06.421Z,21.2
2018-12-23T14:32:55.639Z,21.2
2018-12-23T14:33:46.961Z,21.2
2018-12-23T14:34:36.326Z,21.2
2018-12-23T14:35:26.311Z,21.2
2018-12-23T14:36:16.676Z,21.3
2018-12-23T14:37:06.953Z,21.3
2018-12-23T14:37:56.966Z,21.3
2018-12-23T14:38:46.309Z,21.3
2018-12-23T14:40:08.476Z,21.3
2018-12-23T14:40:26.158Z,21.3
2018-12-23T14:41:16.178Z,21.3
2018-12-23T14:42:21.000Z,21.4
2018-12-23T14:42:56.793Z,21.4
2018-12-23T14:43:47.486Z,21.4
2018-12-23T14:44:37.085Z,21.3
2018-12-23T14:45:41.783Z,21.3
2018-12-23T14:46:17.455Z,21.3
2018-12-23T14:47:21.505Z,21.3
2018-12-23T14:47:57.743Z,21.3
2018-12-23T14:48:46.958Z,21.3
2018-12-23T14:49:37.530Z,21.3
2018-12-23T14:50:28.148Z,21.3
2018-12-23T14:51:18.123Z,21.3
2018-12-23T14:52:22.853Z,21.3
2018-12-23T14:52:57.250Z,21.3
2018-12-23T14:53:48.083Z,21.3
2018-12-23T14:54:36.831Z,21.3
2018-12-23T14:55:27.681Z,21.3
2018-12-23T14:56:17.791Z,21.4
2018-12-23T14:57:07.968Z,21.3
2018-12-23T14:57:57.605Z,21.3
2018-12-23T14:58:48.523Z,21.2
2018-12-23T15:02:08.983Z,21.1
2018-12-23T15:02:58.470Z,21.1
2018-12-23T15:09:41.052Z,21.2
2018-12-23T15:10:28.700Z,21.2
2018-12-23T15:11:19.042Z,21.3
2018-12-23T15:12:09.383Z,21.2
2018-12-23T15:13:13.534Z,21.3
2018-12-23T15:13:49.395Z,21.3
2018-12-23T15:14:53.349Z,21.3
2018-12-23T15:15:29.965Z,21.3
2018-12-23T15:16:19.831Z,21.3
2018-12-23T15:17:24.022Z,21.3
2018-12-23T15:18:13.994Z,21.4
2018-12-23T15:18:49.014Z,21.4
2018-12-23T15:19:39.440Z,21.4
2018-12-23T15:20:29.215Z,21.4
2018-12-23T15:21:19.179Z,21.3
2018-12-23T15:22:10.066Z,21.3
2018-12-23T15:22:59.841Z,21.3
2018-12-23T15:23:50.359Z,21.3
2018-12-23T15:24:39.704Z,21.3
2018-12-23T15:25:30.021Z,21.3
2018-12-23T15:26:20.324Z,21.3
2018-12-23T15:27:10.122Z,21.2
2018-12-23T15:27:59.648Z,21.2
2018-12-23T15:28:50.258Z,21.2
2018-12-23T15:29:40.059Z,21.2
2018-12-23T15:30:30.092Z,21.2
2018-12-23T15:31:35.021Z,21.3
2018-12-23T15:32:10.274Z,21.2
2018-12-23T15:33:01.063Z,21.2
2018-12-23T15:34:05.485Z,21.2
2018-12-23T15:34:40.609Z,21.2
2018-12-23T15:35:30.157Z,21.2
2018-12-23T15:37:10.550Z,21.2
2018-12-23T15:39:48.804Z,21.2
2018-12-23T15:40:30.605Z,21.3
2018-12-23T15:41:21.111Z,21.3
2018-12-23T15:42:11.430Z,21.3
2018-12-23T15:43:01.227Z,21.3
2018-12-23T15:43:51.681Z,21.3
2018-12-23T15:44:40.869Z,21.3
2018-12-23T15:45:31.691Z,21.3
2018-12-23T15:46:21.018Z,21.2
2018-12-23T15:47:11.169Z,21.2
2018-12-23T15:48:02.341Z,21.3
2018-12-23T15:48:52.531Z,21.3
2018-12-23T15:49:41.936Z,21.3
2018-12-23T15:50:47.126Z,21.3
2018-12-23T15:51:24.444Z,21.4
2018-12-23T15:52:12.066Z,21.4
2018-12-23T15:53:01.909Z,21.3
2018-12-23T15:53:52.268Z,21.4
2018-12-23T15:54:50.541Z,21.4
2018-12-23T15:55:32.138Z,21.4
2018-12-23T15:56:22.206Z,21.4
2018-12-23T15:57:11.903Z,21.4
2018-12-23T15:58:02.818Z,21.3
2018-12-23T15:59:07.068Z,21.3
2018-12-23T15:59:57.245Z,21.3
2018-12-23T16:00:32.280Z,21.3
2018-12-23T16:01:36.805Z,21.3
2018-12-23T16:02:11.975Z,21.3
2018-12-23T16:03:02.038Z,21.3
2018-12-23T16:03:52.608Z,21.3
2018-12-23T16:04:42.402Z,21.3
2018-12-23T16:05:33.052Z,21.3
2018-12-23T16:06:22.805Z,21.2
2018-12-23T16:07:13.229Z,21.2
2018-12-23T16:08:02.785Z,21.2
2018-12-23T16:10:32.758Z,21.2
2018-12-23T16:11:23.455Z,21.3
2018-12-23T16:12:13.512Z,21.3
2018-12-23T16:13:18.159Z,21.3
2018-12-23T16:13:53.322Z,21.3
2018-12-23T16:14:44.274Z,21.4
2018-12-23T16:15:34.422Z,21.3
2018-12-23T16:16:22.650Z,21.3
2018-12-23T16:17:12.827Z,21.3
2018-12-23T16:18:03.829Z,21.3
2018-12-23T16:18:53.153Z,21.4
2018-12-23T16:19:43.992Z,21.4
2018-12-23T16:20:33.993Z,21.4
2018-12-23T16:21:38.717Z,21.3
2018-12-23T16:22:13.633Z,21.4
2018-12-23T16:23:03.174Z,21.3
2018-12-23T16:24:08.964Z,21.4
2018-12-23T16:24:45.339Z,21.4
2018-12-23T16:25:33.809Z,21.4
2018-12-23T16:26:25.096Z,21.4
2018-12-23T16:27:15.184Z,21.4
2018-12-23T16:28:04.781Z,21.4
2018-12-23T16:29:26.125Z,21.4
2018-12-23T16:29:44.141Z,21.3
2018-12-23T16:30:33.663Z,21.3
2018-12-23T16:31:24.219Z,21.3
2018-12-23T16:32:13.748Z,21.3
2018-12-23T16:33:19.678Z,21.3
2018-12-23T16:33:53.913Z,21.3
2018-12-23T16:34:45.063Z,21.4
2018-12-23T16:35:35.063Z,21.4
2018-12-23T16:36:24.248Z,21.3
2018-12-23T16:37:29.590Z,21.4
2018-12-23T16:38:04.705Z,21.4
2018-12-23T16:38:55.532Z,21.4
2018-12-23T16:39:44.765Z,21.3
2018-12-23T16:40:34.246Z,21.3
2018-12-23T16:41:24.048Z,21.3
2018-12-23T16:42:15.366Z,21.3
2018-12-23T16:43:05.213Z,21.3
2018-12-23T16:43:55.327Z,21.3
2018-12-23T16:44:45.862Z,21.3
2018-12-23T16:45:34.600Z,21.4
2018-12-23T16:46:25.495Z,21.3
2018-12-23T16:48:06.120Z,21.3
2018-12-23T16:48:55.400Z,21.3
2018-12-23T16:49:47.922Z,21.3
2018-12-23T16:50:36.267Z,21.3
2018-12-23T16:51:25.578Z,21.3
2018-12-23T16:52:16.309Z,21.3
2018-12-23T16:53:06.245Z,21.3
2018-12-23T16:53:55.714Z,21.3
2018-12-23T16:54:45.549Z,21.3
2018-12-23T16:55:38.239Z,21.3
2018-12-23T16:56:25.644Z,21.3
2018-12-23T16:57:16.241Z,21.3
2018-12-23T16:58:07.908Z,21.3
2018-12-23T16:59:11.017Z,21.3
2018-12-23T16:59:46.422Z,21.4
2018-12-23T17:00:35.624Z,21.3
2018-12-23T17:01:26.796Z,21.3
2018-12-23T17:02:15.993Z,21.3
2018-12-23T17:03:06.384Z,21.3
2018-12-23T17:03:56.694Z,21.3
2018-12-23T17:04:46.461Z,21.3
2018-12-23T17:05:36.234Z,21.3
2018-12-23T17:06:28.374Z,21.3
2018-12-23T17:07:17.117Z,21.3
2018-12-23T17:08:07.453Z,21.3
2018-12-23T17:09:11.899Z,21.3
2018-12-23T17:09:47.925Z,21.3
2018-12-23T17:10:52.191Z,21.3
2018-12-23T17:11:27.329Z,21.3
2018-12-23T17:12:31.551Z,21.3
2018-12-23T17:13:07.033Z,21.3
2018-12-23T17:13:57.391Z,21.3
2018-12-23T17:14:46.893Z,21.3
2018-12-23T17:15:37.434Z,21.3
2018-12-23T17:16:27.213Z,21.3
2018-12-23T17:17:18.158Z,21.3
2018-12-23T17:18:07.384Z,21.3
2018-12-23T17:18:56.955Z,21.3
2018-12-23T17:19:47.112Z,21.3
2018-12-23T17:20:38.350Z,21.3
2018-12-23T17:21:28.400Z,21.3
2018-12-23T17:22:17.633Z,21.3
2018-12-23T17:23:07.395Z,21.3
2018-12-23T17:24:12.164Z,21.3
2018-12-23T17:24:47.625Z,21.3
2018-12-23T17:25:38.145Z,21.4
2018-12-23T17:26:27.090Z,21.4
2018-12-23T17:27:17.182Z,21.4
2018-12-23T17:28:08.247Z,21.4
2018-12-23T17:28:58.871Z,21.4
2018-12-23T17:29:48.442Z,21.4
2018-12-23T17:30:38.202Z,21.4
2018-12-23T17:31:28.482Z,21.4
2018-12-23T17:32:17.785Z,21.4
2018-12-23T17:33:08.739Z,21.4